createdAt,value
2023-05-01T00:01:28.928Z,0.20
2023-05-01T00:03:56.422Z,0.20
2023-05-01T00:06:23.820Z,0.32
2023-05-01T00:08:51.129Z,0.10
2023-05-01T00:11:18.199Z,0.30
2023-05-01T00:13:45.380Z,1.05
2023-05-01T00:16:13.037Z,0.30
2023-05-01T00:18:40.681Z,0.73
2023-05-01T00:21:07.876Z,0.10
2023-05-01T00:23:35.699Z,0.38
2023-05-01T00:26:02.843Z,0.77
2023-05-01T00:28:29.944Z,0.10
2023-05-01T00:30:58.065Z,0.20
2023-05-01T00:33:25.213Z,0.13
2023-05-01T00:35:53.116Z,0.75
2023-05-01T00:38:20.534Z,0.15
2023-05-01T00:40:47.918Z,0.10
2023-05-01T00:43:15.053Z,0.10
2023-05-01T00:45:44.628Z,0.35
2023-05-01T00:48:11.994Z,0.25
2023-05-01T00:50:39.292Z,0.35
2023-05-01T00:53:06.512Z,0.10
2023-05-01T00:55:33.953Z,0.10
2023-05-01T00:58:01.874Z,0.28
2023-05-01T01:00:29.658Z,0.32
2023-05-01T01:02:57.055Z,0.10
2023-05-01T01:05:26.478Z,0.30
2023-05-01T01:08:05.224Z,0.22
2023-05-01T01:10:35.444Z,0.28
2023-05-01T01:13:11.399Z,0.30
2023-05-01T01:15:44.882Z,0.47
2023-05-01T01:18:31.183Z,0.55
2023-05-01T01:21:06.877Z,0.30
2023-05-01T01:23:34.142Z,0.15
2023-05-01T01:26:34.523Z,0.25
2023-05-01T01:29:22.225Z,0.20
2023-05-01T01:31:58.392Z,1.40
2023-05-01T01:34:28.471Z,0.65
2023-05-01T01:37:04.194Z,0.20
2023-05-01T01:39:50.136Z,0.32
2023-05-01T01:42:20.553Z,0.20
2023-05-01T01:44:56.110Z,0.52
2023-05-01T01:47:28.288Z,0.20
2023-05-01T01:49:56.020Z,0.47
2023-05-01T01:52:24.834Z,0.10
2023-05-01T01:55:06.396Z,0.22
2023-05-01T01:57:34.151Z,0.30
2023-05-01T02:00:01.353Z,0.75
2023-05-01T02:02:30.398Z,0.10
2023-05-01T02:04:58.086Z,0.10
2023-05-01T02:07:26.212Z,0.10
2023-05-01T02:09:54.676Z,0.15
2023-05-01T02:12:23.612Z,0.60
2023-05-01T02:14:51.720Z,0.55
2023-05-01T02:17:20.891Z,0.10
2023-05-01T02:19:48.426Z,0.30
2023-05-01T02:22:17.127Z,0.40
2023-05-01T02:24:44.648Z,0.10
2023-05-01T02:27:17.943Z,0.20
2023-05-01T02:29:45.111Z,0.68
2023-05-01T02:32:12.458Z,0.38
2023-05-01T02:34:39.619Z,0.35
2023-05-01T02:37:08.666Z,0.30
2023-05-01T02:39:35.837Z,0.10
2023-05-01T02:42:04.608Z,0.40
2023-05-01T02:44:39.531Z,0.65
2023-05-01T02:47:08.871Z,0.47
2023-05-01T02:49:37.097Z,0.20
2023-05-01T02:52:04.986Z,0.50
2023-05-01T02:54:32.361Z,0.90
2023-05-01T02:56:59.629Z,0.10
2023-05-01T02:59:26.972Z,0.15
2023-05-01T03:01:54.235Z,0.22
2023-05-01T03:04:21.400Z,0.73
2023-05-01T03:06:48.639Z,0.20
2023-05-01T03:09:16.380Z,0.22
2023-05-01T03:11:43.471Z,0.73
2023-05-01T03:14:11.373Z,0.20
2023-05-01T03:16:38.752Z,0.40
2023-05-01T03:19:06.164Z,0.30
2023-05-01T03:21:33.943Z,0.68
2023-05-01T03:24:01.377Z,0.30
2023-05-01T03:26:28.693Z,0.38
2023-05-01T03:28:55.833Z,0.28
2023-05-01T03:31:23.398Z,0.10
2023-05-01T03:33:50.613Z,0.55
2023-05-01T03:36:17.795Z,0.25
2023-05-01T03:38:45.555Z,0.30
2023-05-01T03:41:12.748Z,0.25
2023-05-01T03:43:39.888Z,0.40
2023-05-01T03:46:07.015Z,0.50
2023-05-01T03:48:34.242Z,0.32
2023-05-01T03:51:01.890Z,0.28
2023-05-01T03:53:29.178Z,0.20
2023-05-01T03:55:56.521Z,0.47
2023-05-01T03:58:23.640Z,0.50
2023-05-01T04:00:51.151Z,0.25
2023-05-01T04:03:18.659Z,0.45
2023-05-01T04:05:45.799Z,0.43
2023-05-01T04:08:13.086Z,0.10
2023-05-01T04:10:40.239Z,0.22
2023-05-01T04:13:07.446Z,0.20
2023-05-01T04:15:34.602Z,0.17
2023-05-01T04:18:01.910Z,0.32
2023-05-01T04:20:29.175Z,0.40
2023-05-01T04:22:56.707Z,0.20
2023-05-01T04:25:23.891Z,0.55
2023-05-01T04:27:51.168Z,0.20
2023-05-01T04:30:18.538Z,0.40
2023-05-01T04:32:45.759Z,0.30
2023-05-01T04:35:12.996Z,0.10
2023-05-01T04:37:40.377Z,0.22
2023-05-01T04:40:09.735Z,0.60
2023-05-01T04:42:38.566Z,0.20
2023-05-01T04:45:06.397Z,0.25
2023-05-01T04:47:33.584Z,0.10
2023-05-01T04:50:01.247Z,0.30
2023-05-01T04:52:28.380Z,0.32
2023-05-01T04:54:55.486Z,0.40
2023-05-01T04:57:22.538Z,0.50
2023-05-01T04:59:50.471Z,0.30
2023-05-01T05:02:17.648Z,0.45
2023-05-01T05:04:44.779Z,0.30
2023-05-01T05:07:12.022Z,0.30
2023-05-01T05:09:39.210Z,0.63
2023-05-01T05:12:06.436Z,0.70
2023-05-01T05:14:33.606Z,0.75
2023-05-01T05:17:00.959Z,0.35
2023-05-01T05:19:28.289Z,0.38
2023-05-01T05:21:55.504Z,1.30
2023-05-01T05:24:22.698Z,0.28
2023-05-01T05:26:49.879Z,0.43
2023-05-01T05:29:17.164Z,0.43
2023-05-01T05:31:44.307Z,0.45
2023-05-01T05:34:11.506Z,0.30
2023-05-01T05:36:38.879Z,0.28
2023-05-01T05:39:05.954Z,0.65
2023-05-01T05:41:33.112Z,0.17
2023-05-01T05:44:00.397Z,0.73
2023-05-01T05:46:27.595Z,0.40
2023-05-01T05:48:54.748Z,0.20
2023-05-01T05:51:21.929Z,0.20
2023-05-01T05:53:49.211Z,0.20
2023-05-01T05:56:16.388Z,0.40
2023-05-01T05:58:43.730Z,0.25
2023-05-01T06:01:12.235Z,0.43
2023-05-01T06:03:39.568Z,0.50
2023-05-01T06:06:07.204Z,0.35
2023-05-01T06:08:36.421Z,0.32
2023-05-01T06:11:03.633Z,0.15
2023-05-01T06:13:30.860Z,0.40
2023-05-01T06:15:58.017Z,0.35
2023-05-01T06:18:25.282Z,0.17
2023-05-01T06:20:52.611Z,1.20
2023-05-01T06:23:19.848Z,0.85
2023-05-01T06:25:48.717Z,0.85
2023-05-01T06:28:16.194Z,0.30
2023-05-01T06:30:43.362Z,0.38
2023-05-01T06:33:10.957Z,0.40
2023-05-01T06:35:39.993Z,1.75
2023-05-01T06:38:07.185Z,0.30
2023-05-01T06:40:35.262Z,1.45
2023-05-01T06:43:05.729Z,0.63
2023-05-01T06:45:32.932Z,0.20
2023-05-01T06:48:00.596Z,0.40
2023-05-01T06:50:28.876Z,0.45
2023-05-01T06:52:55.976Z,0.85
2023-05-01T06:55:23.264Z,0.08
2023-05-01T06:57:50.556Z,0.95
2023-05-01T07:00:18.067Z,1.17
2023-05-01T07:02:46.552Z,0.68
2023-05-01T07:05:13.873Z,1.02
2023-05-01T07:07:47.387Z,0.20
2023-05-01T07:10:18.186Z,0.50
2023-05-01T07:12:45.353Z,0.70
2023-05-01T07:15:14.262Z,0.10
2023-05-01T07:17:41.647Z,0.10
2023-05-01T07:20:10.411Z,0.55
2023-05-01T07:22:37.556Z,0.17
2023-05-01T07:25:04.755Z,0.40
2023-05-01T07:27:32.036Z,0.28
2023-05-01T07:29:59.649Z,0.60
2023-05-01T07:32:27.169Z,0.35
2023-05-01T07:34:54.749Z,0.50
2023-05-01T07:37:21.818Z,0.43
2023-05-01T07:39:48.974Z,0.20
2023-05-01T07:42:16.086Z,0.73
2023-05-01T07:44:43.198Z,0.20
2023-05-01T07:47:10.387Z,0.40
2023-05-01T07:49:38.607Z,0.22
2023-05-01T07:52:09.293Z,0.20
2023-05-01T07:54:36.461Z,0.28
2023-05-01T07:57:04.362Z,0.68
2023-05-01T07:59:31.462Z,0.20
2023-05-01T08:01:58.695Z,0.30
2023-05-01T08:04:26.118Z,0.57
2023-05-01T08:06:53.321Z,0.20
2023-05-01T08:09:20.633Z,0.65
2023-05-01T08:11:47.796Z,0.30
2023-05-01T08:14:17.537Z,0.40
2023-05-01T08:16:45.124Z,0.15
2023-05-01T08:19:12.352Z,0.82
2023-05-01T08:21:39.551Z,0.22
2023-05-01T08:24:11.934Z,0.35
2023-05-01T08:26:39.117Z,0.75
2023-05-01T08:29:06.183Z,0.25
2023-05-01T08:31:36.288Z,0.30
2023-05-01T08:34:03.403Z,0.50
2023-05-01T08:36:31.812Z,0.35
2023-05-01T08:38:59.125Z,0.38
2023-05-01T08:41:27.874Z,0.15
2023-05-01T08:43:58.274Z,0.43
2023-05-01T08:46:45.237Z,1.00
2023-05-01T08:49:15.154Z,1.20
2023-05-01T08:51:42.794Z,0.47
2023-05-01T08:54:10.862Z,0.63
2023-05-01T08:56:40.433Z,0.30
2023-05-01T08:59:10.452Z,0.80
2023-05-01T09:01:38.645Z,0.22
2023-05-01T09:04:06.940Z,1.13
2023-05-01T09:06:34.245Z,0.75
2023-05-01T09:09:01.607Z,2.67
2023-05-01T09:11:29.323Z,0.43
2023-05-01T09:13:57.178Z,0.28
2023-05-01T09:16:24.527Z,1.05
2023-05-01T09:18:51.758Z,0.43
2023-05-01T09:21:18.955Z,0.28
2023-05-01T09:23:46.110Z,0.30
2023-05-01T09:26:13.307Z,0.57
2023-05-01T09:28:44.899Z,0.00
2023-05-01T09:31:22.870Z,0.10
2023-05-01T09:33:54.569Z,0.20
2023-05-01T09:36:21.912Z,0.00
2023-05-01T09:38:49.182Z,0.17
2023-05-01T09:41:16.331Z,0.55
2023-05-01T09:43:49.814Z,0.47
2023-05-01T09:46:17.175Z,0.20
2023-05-01T09:48:58.764Z,0.32
2023-05-01T09:51:30.020Z,0.52
2023-05-01T09:53:59.249Z,0.73
2023-05-01T09:56:27.378Z,0.32
2023-05-01T09:58:56.254Z,0.35
2023-05-01T10:01:42.979Z,0.45
2023-05-01T10:04:10.518Z,0.00
2023-05-01T10:06:38.155Z,0.28
2023-05-01T10:09:07.293Z,0.25
2023-05-01T10:11:48.577Z,0.60
2023-05-01T10:14:16.288Z,0.13
2023-05-01T10:16:43.491Z,0.82
2023-05-01T10:19:10.941Z,0.30
2023-05-01T10:21:38.129Z,1.55
2023-05-01T10:24:05.960Z,0.35
2023-05-01T10:26:36.438Z,0.63
2023-05-01T10:29:03.974Z,0.60
2023-05-01T10:31:33.061Z,0.55
2023-05-01T10:34:01.891Z,0.77
2023-05-01T10:36:34.140Z,0.10
2023-05-01T10:39:01.262Z,0.22
2023-05-01T10:41:48.248Z,0.40
2023-05-01T10:44:21.905Z,0.32
2023-05-01T10:58:56.475Z,0.80
2023-05-01T11:01:43.239Z,0.32
2023-05-01T11:04:22.728Z,0.45
2023-05-01T11:06:59.101Z,0.22
2023-05-01T11:09:44.394Z,0.80
2023-05-01T11:12:12.487Z,0.15
2023-05-01T11:15:08.842Z,0.32
2023-05-01T11:17:42.844Z,0.10
2023-05-01T11:20:25.974Z,0.43
2023-05-01T11:22:57.179Z,0.57
2023-05-01T11:25:29.166Z,0.28
2023-05-01T11:27:57.746Z,0.28
2023-05-01T11:30:25.258Z,0.52
2023-05-01T11:32:52.712Z,1.27
2023-05-01T11:35:20.891Z,0.20
2023-05-01T11:37:48.477Z,0.17
2023-05-01T11:40:29.145Z,0.30
2023-05-01T11:43:05.303Z,0.10
2023-05-01T11:45:33.007Z,0.35
2023-05-01T11:48:03.010Z,0.52
2023-05-01T11:50:36.276Z,0.55
2023-05-01T11:53:04.130Z,0.30
2023-05-01T11:55:32.116Z,0.20
2023-05-01T11:57:59.480Z,0.65
2023-05-01T12:00:30.685Z,0.47
2023-05-01T12:03:14.416Z,1.00
2023-05-01T12:05:43.216Z,0.45
2023-05-01T12:08:22.923Z,0.35
2023-05-01T12:10:52.260Z,0.13
2023-05-01T12:13:19.818Z,0.93
2023-05-01T12:15:48.300Z,0.90
2023-05-01T12:18:15.986Z,0.40
2023-05-01T12:20:47.686Z,0.80
2023-05-01T12:23:18.482Z,0.10
2023-05-01T12:25:46.172Z,0.75
2023-05-01T12:28:18.127Z,0.30
2023-05-01T12:30:46.343Z,0.20
2023-05-01T12:33:13.634Z,1.33
2023-05-01T12:35:42.778Z,1.33
2023-05-01T12:38:17.328Z,0.32
2023-05-01T12:40:54.728Z,0.75
2023-05-01T12:43:23.259Z,0.98
2023-05-01T12:45:54.229Z,0.08
2023-05-01T12:48:21.728Z,0.10
2023-05-01T12:50:55.047Z,0.45
2023-05-01T12:53:23.350Z,0.10
2023-05-01T12:55:51.779Z,0.75
2023-05-01T12:58:19.424Z,0.65
2023-05-01T13:00:47.833Z,0.30
2023-05-01T13:03:17.339Z,0.17
2023-05-01T13:05:58.234Z,0.10
2023-05-01T13:08:32.215Z,1.23
2023-05-01T13:11:01.064Z,0.00
2023-05-01T13:13:32.845Z,0.20
2023-05-01T13:16:06.333Z,0.20
2023-05-01T13:18:34.425Z,1.13
2023-05-01T13:21:09.004Z,0.20
2023-05-01T13:23:37.502Z,0.35
2023-05-01T13:26:05.009Z,0.35
2023-05-01T13:28:32.329Z,0.20
2023-05-01T13:30:59.433Z,0.40
2023-05-01T13:33:27.371Z,0.90
2023-05-01T13:35:54.467Z,1.80
2023-05-01T13:38:24.565Z,0.30
2023-05-01T13:40:51.620Z,0.10
2023-05-01T13:43:21.156Z,0.13
2023-05-01T13:45:48.359Z,0.10
2023-05-01T13:48:18.263Z,0.05
2023-05-01T13:50:45.414Z,0.00
2023-05-01T13:53:12.570Z,0.40
2023-05-01T13:55:41.481Z,0.10
2023-05-01T13:58:08.916Z,0.20
2023-05-01T14:00:36.542Z,0.75
2023-05-01T14:03:05.105Z,0.00
2023-05-01T14:05:32.501Z,0.03
2023-05-01T14:08:00.306Z,0.22
2023-05-01T14:10:28.719Z,0.43
2023-05-01T14:12:57.919Z,0.30
2023-05-01T14:15:25.443Z,0.22
2023-05-01T14:17:53.042Z,0.00
2023-05-01T14:20:20.446Z,1.17
2023-05-01T14:22:52.383Z,0.00
2023-05-01T14:25:22.482Z,0.00
2023-05-01T14:27:49.828Z,0.00
2023-05-01T14:30:20.153Z,0.20
2023-05-01T14:32:47.784Z,0.55
2023-05-01T14:35:16.717Z,0.10
2023-05-01T14:37:43.963Z,0.25
2023-05-01T14:40:15.049Z,0.10
2023-05-01T14:42:46.404Z,0.93
2023-05-01T14:45:17.178Z,0.30
2023-05-01T14:47:48.047Z,0.15
2023-05-01T14:50:22.460Z,0.00
2023-05-01T14:52:53.916Z,0.25
2023-05-01T14:55:24.394Z,0.10
2023-05-01T14:57:51.604Z,0.00
2023-05-01T15:00:18.959Z,0.00
2023-05-01T15:02:46.346Z,0.10
2023-05-01T15:05:14.771Z,0.10
2023-05-01T15:07:42.118Z,0.10
2023-05-01T15:10:09.500Z,0.08
2023-05-01T15:12:37.888Z,0.32
2023-05-01T15:15:05.461Z,0.32
2023-05-01T15:17:32.727Z,0.43
2023-05-01T15:19:59.971Z,0.57
2023-05-01T15:22:27.438Z,0.20
2023-05-01T15:24:54.609Z,0.00
2023-05-01T15:27:21.895Z,0.45
2023-05-01T15:29:49.115Z,0.10
2023-05-01T15:32:16.307Z,0.20
2023-05-01T15:34:43.579Z,0.22
2023-05-01T15:37:10.784Z,0.30
2023-05-01T15:39:40.335Z,0.68
2023-05-01T15:42:07.707Z,0.40
2023-05-01T15:44:35.026Z,0.28
2023-05-01T15:47:02.208Z,0.22
2023-05-01T15:49:29.553Z,0.30
2023-05-01T15:51:56.898Z,0.05
2023-05-01T15:54:24.649Z,0.63
2023-05-01T15:56:51.788Z,0.45
2023-05-01T15:59:18.944Z,0.52
2023-05-01T16:01:46.149Z,0.65
2023-05-01T16:04:13.520Z,0.57
2023-05-01T16:06:42.269Z,1.00
2023-05-01T16:09:10.724Z,0.25
2023-05-01T16:11:37.913Z,0.65
2023-05-01T16:14:05.372Z,1.05
2023-05-01T16:16:34.190Z,0.80
2023-05-01T16:19:01.981Z,0.20
2023-05-01T16:21:29.142Z,0.43
2023-05-01T16:23:57.428Z,0.35
2023-05-01T16:26:28.008Z,0.30
2023-05-01T16:28:59.364Z,0.50
2023-05-01T16:31:28.024Z,0.63
2023-05-01T16:33:56.720Z,1.20
2023-05-01T16:36:23.923Z,0.85
2023-05-01T16:38:51.077Z,1.10
2023-05-01T16:41:18.454Z,0.35
2023-05-01T16:43:46.411Z,0.57
2023-05-01T16:46:16.692Z,0.20
2023-05-01T16:48:43.918Z,0.63
2023-05-01T16:51:11.931Z,1.02
2023-05-01T16:53:39.085Z,0.95
2023-05-01T16:56:06.495Z,0.38
2023-05-01T16:58:33.795Z,0.43
2023-05-01T17:01:00.929Z,0.25
2023-05-01T17:03:27.994Z,0.50
2023-05-01T17:05:55.657Z,0.25
2023-05-01T17:08:22.786Z,0.38
2023-05-01T17:10:50.203Z,1.05
2023-05-01T17:13:17.315Z,1.08
2023-05-01T17:15:44.674Z,1.00
2023-05-01T17:18:13.236Z,0.77
2023-05-01T17:20:40.430Z,1.40
2023-05-01T17:23:07.552Z,0.80
2023-05-01T17:25:34.635Z,0.63
2023-05-01T17:28:01.767Z,1.35
2023-05-01T17:30:28.910Z,0.68
2023-05-01T17:32:57.284Z,0.70
2023-05-01T17:35:24.545Z,1.25
2023-05-01T17:37:51.672Z,0.68
2023-05-01T17:40:19.786Z,0.70
2023-05-01T17:42:46.984Z,1.17
2023-05-01T17:45:14.160Z,0.77
2023-05-01T17:47:46.569Z,1.23
2023-05-01T17:50:14.542Z,1.05
2023-05-01T17:52:44.227Z,0.57
2023-05-01T17:55:11.663Z,0.55
2023-05-01T17:57:42.387Z,0.93
2023-05-01T18:00:11.835Z,1.15
2023-05-01T18:02:39.606Z,0.47
2023-05-01T18:05:07.159Z,0.68
2023-05-01T18:07:35.465Z,0.93
2023-05-01T18:10:02.642Z,1.02
2023-05-01T18:12:30.853Z,0.85
2023-05-01T18:14:57.984Z,1.20
2023-05-01T18:17:25.191Z,0.68
2023-05-01T18:19:52.316Z,0.47
2023-05-01T18:22:19.481Z,0.90
2023-05-01T18:24:46.731Z,1.60
2023-05-01T18:27:14.462Z,0.73
2023-05-01T18:29:41.737Z,2.50
2023-05-01T18:32:12.754Z,0.30
2023-05-01T18:34:41.943Z,0.88
2023-05-01T18:37:09.157Z,0.60
2023-05-01T18:39:36.807Z,0.57
2023-05-01T18:42:04.037Z,0.63
2023-05-01T18:44:31.443Z,0.80
2023-05-01T18:46:58.621Z,0.80
2023-05-01T18:49:26.020Z,0.82
2023-05-01T18:51:53.277Z,0.82
2023-05-01T18:54:20.746Z,1.15
2023-05-01T18:56:47.970Z,1.48
2023-05-01T18:59:16.863Z,1.55
2023-05-01T19:01:44.036Z,0.98
2023-05-01T19:04:11.260Z,1.33
2023-05-01T19:06:40.745Z,1.00
2023-05-01T19:09:08.118Z,2.20
2023-05-01T19:11:35.263Z,1.27
2023-05-01T19:14:02.536Z,2.05
2023-05-01T19:16:29.730Z,1.25
2023-05-01T19:18:56.970Z,1.83
2023-05-01T19:21:24.432Z,2.05
2023-05-01T19:23:51.535Z,1.98
2023-05-01T19:26:18.685Z,1.23
2023-05-01T19:28:45.749Z,0.75
2023-05-01T19:31:14.612Z,1.77
2023-05-01T19:33:42.211Z,2.20
2023-05-01T19:36:09.429Z,1.88
2023-05-01T19:38:36.631Z,1.95
2023-05-01T19:41:03.723Z,0.88
2023-05-01T19:43:30.811Z,0.60
2023-05-01T19:45:57.975Z,0.73
2023-05-01T19:48:25.269Z,1.80
2023-05-01T19:50:52.704Z,1.50
2023-05-01T19:53:20.944Z,1.65
2023-05-01T19:55:48.322Z,1.67
2023-05-01T19:58:15.673Z,2.20
2023-05-01T20:00:42.880Z,1.27
2023-05-01T20:03:10.804Z,1.15
2023-05-01T20:05:38.943Z,1.90
2023-05-01T20:08:06.290Z,1.50
2023-05-01T20:10:33.683Z,2.60
2023-05-01T20:13:01.725Z,1.13
2023-05-01T20:15:28.880Z,2.80
2023-05-01T20:17:56.068Z,2.10
2023-05-01T20:20:23.711Z,2.13
2023-05-01T20:22:52.896Z,1.02
2023-05-01T20:25:19.997Z,1.50
2023-05-01T20:27:47.279Z,2.75
2023-05-01T20:30:14.455Z,1.13
2023-05-01T20:32:42.538Z,2.35
2023-05-01T20:35:11.002Z,3.80
2023-05-01T20:37:38.302Z,2.28
2023-05-01T20:40:07.115Z,1.27
2023-05-01T20:42:34.222Z,1.10
2023-05-01T20:45:01.477Z,2.03
2023-05-01T20:47:29.546Z,2.38
2023-05-01T20:49:57.478Z,1.77
2023-05-01T20:52:25.551Z,1.80
2023-05-01T20:54:52.653Z,2.35
2023-05-01T20:57:19.768Z,2.70
2023-05-01T20:59:50.899Z,1.45
2023-05-01T21:02:18.436Z,2.65
2023-05-01T21:04:48.545Z,1.73
2023-05-01T21:07:16.560Z,1.52
2023-05-01T21:09:46.816Z,0.88
2023-05-01T21:12:14.786Z,1.63
2023-05-01T21:14:42.307Z,2.42
2023-05-01T21:17:09.879Z,2.88
2023-05-01T21:19:43.804Z,2.75
2023-05-01T21:22:18.041Z,2.65
2023-05-01T21:24:45.502Z,1.30
2023-05-01T21:27:12.946Z,1.83
2023-05-01T21:29:40.778Z,1.83
2023-05-01T21:32:08.736Z,2.08
2023-05-01T21:34:35.949Z,1.42
2023-05-01T21:37:03.085Z,1.48
2023-05-01T21:39:31.563Z,3.30
2023-05-01T21:41:58.893Z,1.92
2023-05-01T21:44:29.858Z,1.65
2023-05-01T21:46:58.265Z,2.47
2023-05-01T21:49:26.898Z,2.15
2023-05-01T21:51:54.701Z,1.92
2023-05-01T21:54:21.930Z,2.53
2023-05-01T21:56:49.169Z,3.17
2023-05-01T21:59:18.549Z,3.15
2023-05-01T22:01:45.931Z,3.25
2023-05-01T22:04:17.918Z,1.50
2023-05-01T22:06:45.205Z,2.17
2023-05-01T22:09:12.788Z,1.40
2023-05-01T22:11:39.875Z,2.97
2023-05-01T22:14:07.362Z,1.60
2023-05-01T22:16:34.942Z,3.30
2023-05-01T22:19:02.094Z,1.63
2023-05-01T22:21:31.457Z,3.40
2023-05-01T22:23:58.685Z,1.77
2023-05-01T22:26:26.318Z,1.50
2023-05-01T22:28:55.778Z,2.95
2023-05-01T22:31:23.104Z,2.60
2023-05-01T22:33:50.596Z,3.50
2023-05-01T22:36:17.792Z,2.13
2023-05-01T22:38:45.134Z,1.73
2023-05-01T22:41:12.522Z,2.50
2023-05-01T22:43:39.768Z,1.88
2023-05-01T22:46:07.307Z,1.90
2023-05-01T22:48:34.434Z,1.77
2023-05-01T22:51:01.573Z,2.72
2023-05-01T22:53:30.733Z,2.53
2023-05-01T22:55:57.824Z,2.17
2023-05-01T22:58:24.916Z,2.15
2023-05-01T23:00:52.099Z,1.98
2023-05-01T23:03:19.367Z,2.67
2023-05-01T23:05:46.636Z,2.05
2023-05-01T23:08:13.848Z,3.17
2023-05-01T23:10:42.663Z,3.60
2023-05-01T23:13:18.837Z,0.98
2023-05-01T23:15:47.311Z,1.65
2023-05-01T23:18:15.702Z,3.40
